sensor_id;sensor_type;location;lat;lon;timestamp;pressure;altitude;pressure_sealevel;temperature;humidity
64713;BME280;51140;45.340;5.980;2023-03-19T00:01:52;96762.16;;;9.05;100.00
64713;BME280;51140;45.340;5.980;2023-03-19T00:04:18;96750.44;;;9.12;100.00
64713;BME280;51140;45.340;5.980;2023-03-19T00:06:43;96755.72;;;9.10;100.00
64713;BME280;51140;45.340;5.980;2023-03-19T00:09:09;96772.78;;;9.02;100.00
64713;BME280;51140;45.340;5.980;2023-03-19T00:11:34;96767.56;;;9.02;100.00
64713;BME280;51140;45.340;5.980;2023-03-19T00:14:00;96786.16;;;8.96;100.00
64713;BME280;51140;45.340;5.980;2023-03-19T00:16:26;96777.84;;;8.91;100.00
64713;BME280;51140;45.340;5.980;2023-03-19T00:18:51;96771.72;;;8.92;100.00
64713;BME280;51140;45.340;5.980;2023-03-19T00:21:16;96779.09;;;8.85;100.00
64713;BME280;51140;45.340;5.980;2023-03-19T00:23:42;96785.13;;;8.86;100.00
64713;BME280;51140;45.340;5.980;2023-03-19T00:26:07;96796.41;;;8.72;100.00
64713;BME280;51140;45.340;5.980;2023-03-19T00:28:33;96797.34;;;8.71;100.00
64713;BME280;51140;45.340;5.980;2023-03-19T00:31:10;96809.44;;;8.45;100.00
64713;BME280;51140;45.340;5.980;2023-03-19T00:33:36;96804.88;;;8.48;100.00
64713;BME280;51140;45.340;5.980;2023-03-19T00:36:02;96808.97;;;8.38;100.00
64713;BME280;51140;45.340;5.980;2023-03-19T00:38:28;96814.72;;;8.43;100.00
64713;BME280;51140;45.340;5.980;2023-03-19T00:40:54;96812.94;;;8.30;100.00
64713;BME280;51140;45.340;5.980;2023-03-19T00:43:19;96794.75;;;8.17;100.00
64713;BME280;51140;45.340;5.980;2023-03-19T00:45:44;96699.94;;;8.26;100.00
64713;BME280;51140;45.340;5.980;2023-03-19T00:48:10;96703.47;;;8.25;100.00
64713;BME280;51140;45.340;5.980;2023-03-19T00:50:36;96707.47;;;8.03;100.00
64713;BME280;51140;45.340;5.980;2023-03-19T00:53:02;96653.38;;;7.97;100.00
64713;BME280;51140;45.340;5.980;2023-03-19T00:55:27;96639.53;;;8.11;100.00
64713;BME280;51140;45.340;5.980;2023-03-19T00:57:52;96627.00;;;7.91;100.00
64713;BME280;51140;45.340;5.980;2023-03-19T01:00:18;96627.41;;;7.84;100.00
64713;BME280;51140;45.340;5.980;2023-03-19T01:02:44;96632.00;;;7.94;100.00
64713;BME280;51140;45.340;5.980;2023-03-19T01:05:09;96636.56;;;7.90;100.00
64713;BME280;51140;45.340;5.980;2023-03-19T01:07:35;96658.66;;;7.96;100.00
64713;BME280;51140;45.340;5.980;2023-03-19T01:10:00;96652.75;;;7.94;100.00
64713;BME280;51140;45.340;5.980;2023-03-19T01:12:26;96658.97;;;7.91;100.00
64713;BME280;51140;45.340;5.980;2023-03-19T01:14:51;96666.13;;;8.00;100.00
64713;BME280;51140;45.340;5.980;2023-03-19T01:17:16;96666.44;;;7.96;100.00
64713;BME280;51140;45.340;5.980;2023-03-19T01:19:42;96657.78;;;7.82;100.00
64713;BME280;51140;45.340;5.980;2023-03-19T01:22:07;96648.06;;;7.86;100.00
64713;BME280;51140;45.340;5.980;2023-03-19T01:24:33;96646.41;;;7.85;100.00
64713;BME280;51140;45.340;5.980;2023-03-19T01:26:59;96656.75;;;7.85;100.00
64713;BME280;51140;45.340;5.980;2023-03-19T01:29:24;96668.06;;;7.84;100.00
64713;BME280;51140;45.340;5.980;2023-03-19T01:31:50;96660.34;;;7.70;100.00
64713;BME280;51140;45.340;5.980;2023-03-19T01:34:15;96660.16;;;7.73;100.00
64713;BME280;51140;45.340;5.980;2023-03-19T01:36:41;96659.72;;;7.66;100.00
64713;BME280;51140;45.340;5.980;2023-03-19T01:39:06;96667.09;;;7.72;100.00
64713;BME280;51140;45.340;5.980;2023-03-19T01:41:32;96653.69;;;7.66;100.00
64713;BME280;51140;45.340;5.980;2023-03-19T01:43:57;96653.69;;;7.66;100.00
64713;BME280;51140;45.340;5.980;2023-03-19T01:46:29;96654.25;;;7.57;100.00
64713;BME280;51140;45.340;5.980;2023-03-19T01:48:59;96645.59;;;7.43;100.00
64713;BME280;51140;45.340;5.980;2023-03-19T01:51:28;96634.41;;;7.43;100.00
64713;BME280;51140;45.340;5.980;2023-03-19T01:53:59;96626.66;;;7.43;100.00
64713;BME280;51140;45.340;5.980;2023-03-19T01:56:30;96604.59;;;7.50;100.00
64713;BME280;51140;45.340;5.980;2023-03-19T01:59:00;96603.00;;;7.62;100.00
64713;BME280;51140;45.340;5.980;2023-03-19T02:01:27;96611.53;;;7.49;100.00
64713;BME280;51140;45.340;5.980;2023-03-19T02:03:54;96603.78;;;7.22;100.00
64713;BME280;51140;45.340;5.980;2023-03-19T02:06:20;96586.19;;;7.28;100.00
64713;BME280;51140;45.340;5.980;2023-03-19T02:08:47;96582.81;;;7.40;100.00
64713;BME280;51140;45.340;5.980;2023-03-19T02:11:14;96586.31;;;7.39;100.00
64713;BME280;51140;45.340;5.980;2023-03-19T02:13:40;96589.53;;;7.42;100.00
64713;BME280;51140;45.340;5.980;2023-03-19T02:16:06;96584.75;;;7.36;100.00
64713;BME280;51140;45.340;5.980;2023-03-19T02:18:31;96586.91;;;7.30;100.00
64713;BME280;51140;45.340;5.980;2023-03-19T02:26:07;96511.72;;;7.17;100.00
64713;BME280;51140;45.340;5.980;2023-03-19T02:28:33;96493.50;;;7.18;100.00
64713;BME280;51140;45.340;5.980;2023-03-19T02:31:00;96438.56;;;7.01;100.00
64713;BME280;51140;45.340;5.980;2023-03-19T02:33:26;96418.50;;;7.04;100.00
64713;BME280;51140;45.340;5.980;2023-03-19T02:35:52;96417.25;;;7.10;100.00
64713;BME280;51140;45.340;5.980;2023-03-19T02:38:19;96427.66;;;7.22;100.00
64713;BME280;51140;45.340;5.980;2023-03-19T02:40:51;96419.53;;;7.14;100.00
64713;BME280;51140;45.340;5.980;2023-03-19T02:43:20;96415.28;;;7.13;100.00
64713;BME280;51140;45.340;5.980;2023-03-19T02:45:45;96402.56;;;7.10;100.00
64713;BME280;51140;45.340;5.980;2023-03-19T02:48:11;96395.63;;;7.11;100.00
64713;BME280;51140;45.340;5.980;2023-03-19T02:50:36;96385.06;;;7.14;100.00
64713;BME280;51140;45.340;5.980;2023-03-19T02:53:02;96368.28;;;7.19;100.00
64713;BME280;51140;45.340;5.980;2023-03-19T02:55:27;96366.97;;;7.27;100.00
64713;BME280;51140;45.340;5.980;2023-03-19T02:57:53;96337.31;;;7.18;100.00
64713;BME280;51140;45.340;5.980;2023-03-19T03:00:19;96311.41;;;7.18;100.00
64713;BME280;51140;45.340;5.980;2023-03-19T03:02:44;96265.72;;;7.17;100.00
64713;BME280;51140;45.340;5.980;2023-03-19T03:05:10;96230.91;;;7.46;100.00
64713;BME280;51140;45.340;5.980;2023-03-19T03:07:36;96207.69;;;7.45;100.00
64713;BME280;51140;45.340;5.980;2023-03-19T03:10:01;96193.19;;;7.42;100.00
64713;BME280;51140;45.340;5.980;2023-03-19T03:12:27;96170.59;;;7.44;100.00
64713;BME280;51140;45.340;5.980;2023-03-19T03:14:52;96100.50;;;7.35;100.00
64713;BME280;51140;45.340;5.980;2023-03-19T03:17:18;96043.56;;;7.46;100.00
64713;BME280;51140;45.340;5.980;2023-03-19T03:19:44;96030.34;;;7.62;100.00
64713;BME280;51140;45.340;5.980;2023-03-19T03:22:09;96059.31;;;7.67;100.00
64713;BME280;51140;45.340;5.980;2023-03-19T03:24:35;96103.59;;;7.64;100.00
64713;BME280;51140;45.340;5.980;2023-03-19T03:27:00;96123.38;;;7.65;100.00
64713;BME280;51140;45.340;5.980;2023-03-19T03:29:26;96141.75;;;7.62;100.00
64713;BME280;51140;45.340;5.980;2023-03-19T03:31:51;96153.22;;;7.70;100.00
64713;BME280;51140;45.340;5.980;2023-03-19T03:34:17;96155.47;;;7.75;100.00
64713;BME280;51140;45.340;5.980;2023-03-19T03:36:42;96165.00;;;7.74;100.00
64713;BME280;51140;45.340;5.980;2023-03-19T03:39:08;96173.63;;;7.75;100.00
64713;BME280;51140;45.340;5.980;2023-03-19T03:41:34;96192.19;;;7.69;100.00
64713;BME280;51140;45.340;5.980;2023-03-19T03:43:59;96194.28;;;7.64;100.00
64713;BME280;51140;45.340;5.980;2023-03-19T03:46:24;96195.53;;;7.58;100.00
64713;BME280;51140;45.340;5.980;2023-03-19T03:48:50;96206.72;;;7.59;100.00
64713;BME280;51140;45.340;5.980;2023-03-19T03:51:16;96209.41;;;7.57;100.00
64713;BME280;51140;45.340;5.980;2023-03-19T03:53:42;96220.81;;;7.54;100.00
64713;BME280;51140;45.340;5.980;2023-03-19T03:56:07;96216.19;;;7.47;100.00
64713;BME280;51140;45.340;5.980;2023-03-19T03:58:33;96226.44;;;7.48;100.00
64713;BME280;51140;45.340;5.980;2023-03-19T04:00:59;96233.31;;;7.37;100.00
64713;BME280;51140;45.340;5.980;2023-03-19T04:03:24;96232.38;;;7.38;100.00
64713;BME280;51140;45.340;5.980;2023-03-19T04:05:50;96235.78;;;7.38;100.00
64713;BME280;51140;45.340;5.980;2023-03-19T04:08:15;96246.69;;;7.31;100.00
64713;BME280;51140;45.340;5.980;2023-03-19T04:10:41;96257.38;;;7.26;100.00
64713;BME280;51140;45.340;5.980;2023-03-19T04:13:08;96259.63;;;7.31;100.00
64713;BME280;51140;45.340;5.980;2023-03-19T04:15:34;96264.41;;;7.24;100.00
64713;BME280;51140;45.340;5.980;2023-03-19T04:18:00;96260.16;;;7.10;100.00
64713;BME280;51140;45.340;5.980;2023-03-19T04:20:25;96256.63;;;7.11;100.00
64713;BME280;51140;45.340;5.980;2023-03-19T04:22:51;96258.78;;;7.17;100.00
64713;BME280;51140;45.340;5.980;2023-03-19T04:25:17;96256.72;;;7.10;100.00
64713;BME280;51140;45.340;5.980;2023-03-19T04:27:43;96268.13;;;7.20;100.00
64713;BME280;51140;45.340;5.980;2023-03-19T04:30:09;96269.81;;;7.21;100.00
64713;BME280;51140;45.340;5.980;2023-03-19T04:32:35;96267.94;;;7.23;100.00
64713;BME280;51140;45.340;5.980;2023-03-19T04:35:01;96272.66;;;7.42;100.00
64713;BME280;51140;45.340;5.980;2023-03-19T04:37:27;96294.25;;;7.30;100.00
64713;BME280;51140;45.340;5.980;2023-03-19T04:39:52;96300.13;;;7.19;100.00
64713;BME280;51140;45.340;5.980;2023-03-19T04:42:18;96295.34;;;7.13;100.00
64713;BME280;51140;45.340;5.980;2023-03-19T04:44:44;96303.34;;;7.10;100.00
64713;BME280;51140;45.340;5.980;2023-03-19T04:47:09;96305.63;;;7.02;100.00
64713;BME280;51140;45.340;5.980;2023-03-19T04:49:35;96313.69;;;7.10;100.00
64713;BME280;51140;45.340;5.980;2023-03-19T04:52:01;96307.91;;;7.06;100.00
64713;BME280;51140;45.340;5.980;2023-03-19T04:54:26;96310.38;;;7.08;100.00
64713;BME280;51140;45.340;5.980;2023-03-19T04:56:52;96318.34;;;7.05;100.00
64713;BME280;51140;45.340;5.980;2023-03-19T04:59:18;96316.59;;;7.05;100.00
64713;BME280;51140;45.340;5.980;2023-03-19T05:01:43;96309.13;;;7.01;100.00
64713;BME280;51140;45.340;5.980;2023-03-19T05:04:09;96298.19;;;7.22;100.00
64713;BME280;51140;45.340;5.980;2023-03-19T05:06:35;96292.47;;;7.30;100.00
64713;BME280;51140;45.340;5.980;2023-03-19T05:09:02;96291.53;;;7.44;100.00
64713;BME280;51140;45.340;5.980;2023-03-19T05:11:28;96293.69;;;7.50;100.00
64713;BME280;51140;45.340;5.980;2023-03-19T05:13:53;96288.19;;;7.54;100.00
64713;BME280;51140;45.340;5.980;2023-03-19T05:16:18;96285.50;;;7.69;100.00
64713;BME280;51140;45.340;5.980;2023-03-19T05:18:44;96286.94;;;7.73;100.00
64713;BME280;51140;45.340;5.980;2023-03-19T05:21:11;96281.31;;;7.79;100.00
64713;BME280;51140;45.340;5.980;2023-03-19T05:23:37;96276.44;;;7.74;100.00
64713;BME280;51140;45.340;5.980;2023-03-19T05:26:03;96282.84;;;7.81;100.00
64713;BME280;51140;45.340;5.980;2023-03-19T05:28:28;96284.31;;;7.85;100.00
64713;BME280;51140;45.340;5.980;2023-03-19T05:30:54;96296.94;;;7.90;100.00
64713;BME280;51140;45.340;5.980;2023-03-19T05:33:20;96310.59;;;8.05;100.00
64713;BME280;51140;45.340;5.980;2023-03-19T05:35:47;96316.94;;;7.88;100.00
64713;BME280;51140;45.340;5.980;2023-03-19T05:38:12;96328.97;;;7.89;100.00
64713;BME280;51140;45.340;5.980;2023-03-19T05:40:37;96337.03;;;7.97;100.00
64713;BME280;51140;45.340;5.980;2023-03-19T05:43:06;96328.88;;;7.91;100.00
64713;BME280;51140;45.340;5.980;2023-03-19T05:45:31;96328.16;;;7.89;100.00
64713;BME280;51140;45.340;5.980;2023-03-19T05:47:57;96315.19;;;8.01;100.00
64713;BME280;51140;45.340;5.980;2023-03-19T05:50:22;96311.13;;;7.97;100.00
64713;BME280;51140;45.340;5.980;2023-03-19T05:52:48;96300.13;;;8.06;100.00
64713;BME280;51140;45.340;5.980;2023-03-19T05:55:13;96323.75;;;8.14;100.00
64713;BME280;51140;45.340;5.980;2023-03-19T05:57:38;96353.63;;;8.07;100.00
64713;BME280;51140;45.340;5.980;2023-03-19T06:00:05;96356.78;;;8.36;100.00
64713;BME280;51140;45.340;5.980;2023-03-19T06:02:32;96385.31;;;8.36;100.00
64713;BME280;51140;45.340;5.980;2023-03-19T06:04:57;96407.94;;;8.34;100.00
64713;BME280;51140;45.340;5.980;2023-03-19T06:07:23;96438.84;;;8.50;100.00
64713;BME280;51140;45.340;5.980;2023-03-19T06:09:48;96474.75;;;8.56;100.00
64713;BME280;51140;45.340;5.980;2023-03-19T06:12:13;96510.44;;;8.65;100.00
64713;BME280;51140;45.340;5.980;2023-03-19T06:14:40;96546.06;;;8.63;100.00
64713;BME280;51140;45.340;5.980;2023-03-19T06:17:06;96577.78;;;8.79;100.00
64713;BME280;51140;45.340;5.980;2023-03-19T06:19:31;96591.44;;;8.83;100.00
64713;BME280;51140;45.340;5.980;2023-03-19T06:21:56;96611.53;;;8.79;100.00
64713;BME280;51140;45.340;5.980;2023-03-19T06:24:22;96621.31;;;8.89;100.00
64713;BME280;51140;45.340;5.980;2023-03-19T06:26:47;96633.16;;;8.93;100.00
64713;BME280;51140;45.340;5.980;2023-03-19T06:29:13;96648.53;;;8.96;100.00
64713;BME280;51140;45.340;5.980;2023-03-19T06:31:38;96641.66;;;8.95;100.00
64713;BME280;51140;45.340;5.980;2023-03-19T06:34:06;96628.59;;;8.84;100.00
64713;BME280;51140;45.340;5.980;2023-03-19T06:36:31;96610.63;;;8.93;100.00
64713;BME280;51140;45.340;5.980;2023-03-19T06:38:56;96595.34;;;8.89;100.00
64713;BME280;51140;45.340;5.980;2023-03-19T06:41:22;96587.88;;;8.84;100.00
64713;BME280;51140;45.340;5.980;2023-03-19T06:43:49;96575.81;;;9.20;100.00
64713;BME280;51140;45.340;5.980;2023-03-19T06:46:14;96587.34;;;9.28;100.00
64713;BME280;51140;45.340;5.980;2023-03-19T06:48:40;96589.41;;;9.36;100.00
64713;BME280;51140;45.340;5.980;2023-03-19T06:51:05;96584.09;;;9.37;100.00
64713;BME280;51140;45.340;5.980;2023-03-19T06:53:31;96587.34;;;9.28;100.00
64713;BME280;51140;45.340;5.980;2023-03-19T06:55:56;96590.19;;;9.49;100.00
64713;BME280;51140;45.340;5.980;2023-03-19T06:58:22;96607.50;;;9.37;100.00
64713;BME280;51140;45.340;5.980;2023-03-19T07:00:47;96614.22;;;9.40;100.00
64713;BME280;51140;45.340;5.980;2023-03-19T07:03:12;96615.34;;;9.49;100.00
64713;BME280;51140;45.340;5.980;2023-03-19T07:05:38;96625.13;;;9.45;100.00
64713;BME280;51140;45.340;5.980;2023-03-19T07:08:03;96631.59;;;9.39;100.00
64713;BME280;51140;45.340;5.980;2023-03-19T07:10:31;96640.94;;;9.42;100.00
64713;BME280;51140;45.340;5.980;2023-03-19T07:12:56;96664.69;;;9.25;100.00
64713;BME280;51140;45.340;5.980;2023-03-19T07:15:22;96665.53;;;9.25;100.00
64713;BME280;51140;45.340;5.980;2023-03-19T07:17:47;96673.66;;;9.21;100.00
64713;BME280;51140;45.340;5.980;2023-03-19T07:20:14;96674.97;;;9.14;100.00
64713;BME280;51140;45.340;5.980;2023-03-19T07:22:40;96676.53;;;9.29;100.00
64713;BME280;51140;45.340;5.980;2023-03-19T07:25:06;96664.78;;;9.36;100.00
64713;BME280;51140;45.340;5.980;2023-03-19T07:27:31;96662.06;;;9.37;100.00
64713;BME280;51140;45.340;5.980;2023-03-19T07:29:57;96650.06;;;9.48;100.00
64713;BME280;51140;45.340;5.980;2023-03-19T07:32:22;96646.69;;;9.34;100.00
64713;BME280;51140;45.340;5.980;2023-03-19T07:34:48;96644.09;;;9.34;100.00
64713;BME280;51140;45.340;5.980;2023-03-19T07:37:13;96645.13;;;9.32;100.00
64713;BME280;51140;45.340;5.980;2023-03-19T07:39:39;96636.78;;;9.39;100.00
64713;BME280;51140;45.340;5.980;2023-03-19T07:42:05;96641.09;;;9.15;100.00
64713;BME280;51140;45.340;5.980;2023-03-19T07:44:30;96638.28;;;9.31;100.00
64713;BME280;51140;45.340;5.980;2023-03-19T07:46:56;96619.03;;;9.57;100.00
64713;BME280;51140;45.340;5.980;2023-03-19T07:49:22;96624.34;;;9.56;100.00
64713;BME280;51140;45.340;5.980;2023-03-19T07:51:47;96623.97;;;9.49;100.00
64713;BME280;51140;45.340;5.980;2023-03-19T07:54:13;96616.31;;;9.71;100.00
64713;BME280;51140;45.340;5.980;2023-03-19T07:56:38;96612.59;;;9.63;100.00
64713;BME280;51140;45.340;5.980;2023-03-19T07:59:04;96607.34;;;9.76;100.00
64713;BME280;51140;45.340;5.980;2023-03-19T08:01:30;96603.19;;;9.73;100.00
64713;BME280;51140;45.340;5.980;2023-03-19T08:03:55;96619.47;;;9.64;100.00
64713;BME280;51140;45.340;5.980;2023-03-19T08:06:20;96608.84;;;9.67;100.00
64713;BME280;51140;45.340;5.980;2023-03-19T08:08:46;96595.19;;;9.87;100.00
64713;BME280;51140;45.340;5.980;2023-03-19T08:11:11;96585.22;;;10.05;100.00
64713;BME280;51140;45.340;5.980;2023-03-19T08:13:37;96579.09;;;10.17;100.00
64713;BME280;51140;45.340;5.980;2023-03-19T08:16:02;96581.34;;;10.11;100.00
64713;BME280;51140;45.340;5.980;2023-03-19T08:18:28;96579.22;;;10.16;100.00
64713;BME280;51140;45.340;5.980;2023-03-19T08:20:53;96591.91;;;9.96;100.00
64713;BME280;51140;45.340;5.980;2023-03-19T08:23:18;96574.63;;;9.84;100.00
64713;BME280;51140;45.340;5.980;2023-03-19T08:25:44;96590.31;;;9.71;100.00
64713;BME280;51140;45.340;5.980;2023-03-19T08:28:09;96586.44;;;9.88;100.00
64713;BME280;51140;45.340;5.980;2023-03-19T08:30:36;96580.28;;;9.78;100.00
64713;BME280;51140;45.340;5.980;2023-03-19T08:33:02;96572.50;;;9.89;100.00
64713;BME280;51140;45.340;5.980;2023-03-19T08:35:27;96554.66;;;10.31;100.00
64713;BME280;51140;45.340;5.980;2023-03-19T08:37:54;96563.09;;;10.46;100.00
64713;BME280;51140;45.340;5.980;2023-03-19T08:40:20;96552.31;;;10.61;100.00
64713;BME280;51140;45.340;5.980;2023-03-19T08:42:45;96560.84;;;10.86;100.00
64713;BME280;51140;45.340;5.980;2023-03-19T08:45:13;96559.91;;;10.87;100.00
64713;BME280;51140;45.340;5.980;2023-03-19T08:47:39;96557.41;;;10.96;100.00
64713;BME280;51140;45.340;5.980;2023-03-19T08:50:06;96574.00;;;10.84;100.00
64713;BME280;51140;45.340;5.980;2023-03-19T08:52:32;96577.41;;;10.96;100.00
64713;BME280;51140;45.340;5.980;2023-03-19T08:54:57;96571.59;;;11.15;100.00
64713;BME280;51140;45.340;5.980;2023-03-19T08:57:23;96561.69;;;11.41;100.00
64713;BME280;51140;45.340;5.980;2023-03-19T08:59:49;96563.22;;;11.43;100.00
64713;BME280;51140;45.340;5.980;2023-03-19T09:02:14;96547.97;;;11.82;100.00
64713;BME280;51140;45.340;5.980;2023-03-19T09:04:40;96550.38;;;11.95;100.00
64713;BME280;51140;45.340;5.980;2023-03-19T09:07:06;96571.69;;;12.00;100.00
64713;BME280;51140;45.340;5.980;2023-03-19T09:09:32;96603.50;;;11.61;100.00
64713;BME280;51140;45.340;5.980;2023-03-19T09:11:57;96613.44;;;11.56;100.00
64713;BME280;51140;45.340;5.980;2023-03-19T09:14:22;96594.72;;;12.06;100.00
64713;BME280;51140;45.340;5.980;2023-03-19T09:16:48;96594.31;;;12.10;100.00
64713;BME280;51140;45.340;5.980;2023-03-19T09:19:13;96600.19;;;12.03;100.00
64713;BME280;51140;45.340;5.980;2023-03-19T09:21:39;96614.50;;;11.65;100.00
64713;BME280;51140;45.340;5.980;2023-03-19T09:24:04;96617.13;;;11.54;100.00
64713;BME280;51140;45.340;5.980;2023-03-19T09:26:30;96612.94;;;11.30;100.00
64713;BME280;51140;45.340;5.980;2023-03-19T09:28:56;96596.81;;;11.25;100.00
64713;BME280;51140;45.340;5.980;2023-03-19T09:31:22;96586.97;;;11.29;100.00
64713;BME280;51140;45.340;5.980;2023-03-19T09:33:48;96551.72;;;11.46;100.00
64713;BME280;51140;45.340;5.980;2023-03-19T09:36:13;96522.28;;;11.66;100.00
64713;BME280;51140;45.340;5.980;2023-03-19T09:38:38;96523.06;;;11.46;100.00
64713;BME280;51140;45.340;5.980;2023-03-19T09:41:26;96527.56;;;11.44;100.00
64713;BME280;51140;45.340;5.980;2023-03-19T09:44:09;96509.81;;;11.38;100.00
64713;BME280;51140;45.340;5.980;2023-03-19T09:46:43;96496.72;;;11.49;100.00
64713;BME280;51140;45.340;5.980;2023-03-19T09:49:31;96487.69;;;11.53;100.00
64713;BME280;51140;45.340;5.980;2023-03-19T09:52:00;96494.38;;;11.46;100.00
64713;BME280;51140;45.340;5.980;2023-03-19T09:57:08;96479.28;;;11.17;100.00
64713;BME280;51140;45.340;5.980;2023-03-19T09:59:34;96477.88;;;11.13;100.00
64713;BME280;51140;45.340;5.980;2023-03-19T10:02:39;96461.66;;;11.21;100.00
64713;BME280;51140;45.340;5.980;2023-03-19T10:16:14;96464.47;;;11.50;100.00
64713;BME280;51140;45.340;5.980;2023-03-19T10:18:46;96463.66;;;11.81;100.00
64713;BME280;51140;45.340;5.980;2023-03-19T10:21:26;96461.47;;;11.86;100.00
64713;BME280;51140;45.340;5.980;2023-03-19T10:26:40;96465.59;;;11.89;100.00
64713;BME280;51140;45.340;5.980;2023-03-19T10:29:17;96481.44;;;11.76;100.00
64713;BME280;51140;45.340;5.980;2023-03-19T10:32:02;96483.44;;;11.84;100.00
64713;BME280;51140;45.340;5.980;2023-03-19T10:37:00;96494.88;;;12.13;100.00
64713;BME280;51140;45.340;5.980;2023-03-19T10:39:29;96523.69;;;11.70;100.00
64713;BME280;51140;45.340;5.980;2023-03-19T10:42:20;96521.63;;;12.06;100.00
64713;BME280;51140;45.340;5.980;2023-03-19T10:44:54;96521.59;;;12.27;100.00
64713;BME280;51140;45.340;5.980;2023-03-19T10:47:24;96535.47;;;11.85;100.00
64713;BME280;51140;45.340;5.980;2023-03-19T10:49:50;96531.59;;;12.01;100.00
64713;BME280;51140;45.340;5.980;2023-03-19T10:52:31;96531.50;;;12.53;100.00
64713;BME280;51140;45.340;5.980;2023-03-19T10:57:40;96544.16;;;12.89;100.00
64713;BME280;51140;45.340;5.980;2023-03-19T11:00:15;96533.16;;;13.25;100.00
64713;BME280;51140;45.340;5.980;2023-03-19T11:02:50;96565.13;;;13.08;100.00
64713;BME280;51140;45.340;5.980;2023-03-19T11:08:05;96564.06;;;13.79;100.00
64713;BME280;51140;45.340;5.980;2023-03-19T11:10:34;96597.06;;;13.52;100.00
64713;BME280;51140;45.340;5.980;2023-03-19T11:13:14;96640.41;;;13.35;100.00
64713;BME280;51140;45.340;5.980;2023-03-19T11:15:41;96618.72;;;13.92;100.00
64713;BME280;51140;45.340;5.980;2023-03-19T11:18:27;96604.41;;;14.25;100.00
64713;BME280;51140;45.340;5.980;2023-03-19T11:21:00;96656.78;;;14.25;100.00
64713;BME280;51140;45.340;5.980;2023-03-19T11:23:36;96708.38;;;14.54;100.00
64713;BME280;51140;45.340;5.980;2023-03-19T11:26:03;96767.94;;;14.81;100.00
64713;BME280;51140;45.340;5.980;2023-03-19T11:28:29;96785.38;;;15.48;100.00
64713;BME280;51140;45.340;5.980;2023-03-19T11:34:10;96920.38;;;14.57;100.00
64713;BME280;51140;45.340;5.980;2023-03-19T11:47:18;96921.13;;;16.04;100.00
64713;BME280;51140;45.340;5.980;2023-03-19T11:53:10;96978.88;;;15.55;100.00
64713;BME280;51140;45.340;5.980;2023-03-19T11:55:40;96992.97;;;15.54;100.00
64713;BME280;51140;45.340;5.980;2023-03-19T12:00:55;97034.75;;;14.67;100.00
64713;BME280;51140;45.340;5.980;2023-03-19T12:04:21;97033.88;;;14.36;100.00
64713;BME280;51140;45.340;5.980;2023-03-19T12:09:15;96982.75;;;15.42;100.00
64713;BME280;51140;45.340;5.980;2023-03-19T12:11:53;97006.06;;;15.16;100.00
64713;BME280;51140;45.340;5.980;2023-03-19T12:17:43;96999.41;;;15.02;100.00
64713;BME280;51140;45.340;5.980;2023-03-19T12:23:27;97000.09;;;14.94;100.00
64713;BME280;51140;45.340;5.980;2023-03-19T12:26:04;97000.16;;;14.73;100.00
64713;BME280;51140;45.340;5.980;2023-03-19T12:28:40;97014.03;;;14.55;100.00
64713;BME280;51140;45.340;5.980;2023-03-19T12:34:34;97006.50;;;14.71;100.00
64713;BME280;51140;45.340;5.980;2023-03-19T12:39:59;97012.88;;;15.47;100.00
64713;BME280;51140;45.340;5.980;2023-03-19T12:42:37;97055.97;;;15.45;100.00
64713;BME280;51140;45.340;5.980;2023-03-19T12:45:11;97069.59;;;15.79;100.00
64713;BME280;51140;45.340;5.980;2023-03-19T12:47:41;97051.47;;;16.14;100.00
64713;BME280;51140;45.340;5.980;2023-03-19T12:50:10;97042.59;;;16.25;100.00
64713;BME280;51140;45.340;5.980;2023-03-19T12:52:43;97039.78;;;16.36;100.00
64713;BME280;51140;45.340;5.980;2023-03-19T12:58:00;97067.28;;;16.71;100.00
64713;BME280;51140;45.340;5.980;2023-03-19T13:00:39;97116.47;;;16.12;100.00
64713;BME280;51140;45.340;5.980;2023-03-19T13:03:16;97160.41;;;15.51;100.00
64713;BME280;51140;45.340;5.980;2023-03-19T13:05:55;97175.88;;;14.83;100.00
64713;BME280;51140;45.340;5.980;2023-03-19T13:10:52;97121.97;;;15.90;100.00
64713;BME280;51140;45.340;5.980;2023-03-19T13:13:54;97120.06;;;16.11;100.00
64713;BME280;51140;45.340;5.980;2023-03-19T13:21:54;97118.34;;;16.39;100.00
64713;BME280;51140;45.340;5.980;2023-03-19T13:24:30;97158.66;;;14.90;100.00
64713;BME280;51140;45.340;5.980;2023-03-19T13:26:59;97072.34;;;15.68;100.00
64713;BME280;51140;45.340;5.980;2023-03-19T13:29:30;97029.34;;;16.07;100.00
64713;BME280;51140;45.340;5.980;2023-03-19T13:32:08;96949.78;;;16.24;100.00
64713;BME280;51140;45.340;5.980;2023-03-19T13:34:46;96940.50;;;16.30;100.00
64713;BME280;51140;45.340;5.980;2023-03-19T13:37:14;96917.13;;;16.64;100.00
64713;BME280;51140;45.340;5.980;2023-03-19T13:39:41;96875.66;;;16.85;100.00
64713;BME280;51140;45.340;5.980;2023-03-19T13:45:02;96858.53;;;16.81;100.00
64713;BME280;51140;45.340;5.980;2023-03-19T13:55:27;96904.69;;;14.76;100.00
64713;BME280;51140;45.340;5.980;2023-03-19T14:05:45;96759.69;;;15.51;100.00
64713;BME280;51140;45.340;5.980;2023-03-19T14:08:19;96764.09;;;15.60;100.00
64713;BME280;51140;45.340;5.980;2023-03-19T14:10:49;96738.34;;;15.74;100.00
64713;BME280;51140;45.340;5.980;2023-03-19T14:13:35;96747.09;;;15.64;100.00
64713;BME280;51140;45.340;5.980;2023-03-19T14:16:14;96768.28;;;15.44;100.00
64713;BME280;51140;45.340;5.980;2023-03-19T14:18:42;96787.06;;;15.39;100.00
64713;BME280;51140;45.340;5.980;2023-03-19T14:21:32;96771.13;;;15.97;100.00
64713;BME280;51140;45.340;5.980;2023-03-19T14:24:39;96754.84;;;16.39;100.00
64713;BME280;51140;45.340;5.980;2023-03-19T14:27:43;96781.16;;;16.56;100.00
64713;BME280;51140;45.340;5.980;2023-03-19T14:35:48;96858.44;;;16.36;100.00
64713;BME280;51140;45.340;5.980;2023-03-19T14:38:28;96911.56;;;15.93;100.00
64713;BME280;51140;45.340;5.980;2023-03-19T14:41:16;96846.03;;;16.56;100.00
64713;BME280;51140;45.340;5.980;2023-03-19T14:46:32;96877.50;;;16.20;100.00